Huvudsida
METAR-TAF:

METAR-TAF

Flygplatser :

Golovin, Alaska, USA

latitud: 64-32-36N, longitud: 163-02-22W, höjd: 8 m

Aktuellt väderrapport

Denna rapport gjordes för 1 timme och 22 minuter sedan, klockan 21:56 UTC
Vind 8 kt från syd
Temperatur 14°C
Fuktighet 77%
Tryck 1015 hPa
Sikt: 16.1 km
Klar himmel

METAR: PAGL 172156Z AUTO 17008KT 10SM CLR 14/10 A2997 RMK AO2 SLP143 T01390100

Tid: 15:18 (23:18 UTC)


TAF: saknas

Aktuella väderrapporter och prognoser från 4000 flygplatser (METAR- och TAF-rapporter).

De tillgängliga stationerna syns som gula och röda prickar på kartan.

För musen över prickarna för att se namnen på stationerna.

Klicka sedan för att få väderrapporter och prognoser.

För att ändra kartan: Klicka på de gröna knapparna med ett svart kors på för att zooma in; den gröna knappen med ett streck på för att zooma ut; eller på de gröna pilarna för angränsande kartor.


METAR-TAF: